createdAt,value
2017-11-28T00:01:19.864Z,1.40
2017-11-28T00:03:47.730Z,2.30
2017-11-28T00:06:15.600Z,1.52
2017-11-28T00:08:43.464Z,1.58
2017-11-28T00:11:11.334Z,1.92
2017-11-28T00:13:39.200Z,1.60
2017-11-28T00:16:07.070Z,2.22
2017-11-28T00:18:34.934Z,2.22
2017-11-28T00:21:02.801Z,1.37
2017-11-28T00:23:30.668Z,3.10
2017-11-28T00:25:58.642Z,2.65
2017-11-28T00:28:26.506Z,3.60
2017-11-28T00:30:54.374Z,2.15
2017-11-28T00:33:22.246Z,1.50
2017-11-28T00:35:50.107Z,1.98
2017-11-28T00:38:17.976Z,2.35
2017-11-28T00:40:45.844Z,2.30
2017-11-28T00:43:13.710Z,1.62
2017-11-28T00:45:41.576Z,3.15
2017-11-28T00:48:09.444Z,1.20
2017-11-28T00:50:37.310Z,1.70
2017-11-28T00:53:05.179Z,3.55
2017-11-28T00:55:33.045Z,1.65
2017-11-28T00:58:00.913Z,2.33
2017-11-28T01:00:28.788Z,1.37
2017-11-28T01:02:56.648Z,1.40
2017-11-28T01:05:24.515Z,1.42
2017-11-28T01:07:52.383Z,1.45
2017-11-28T01:10:20.249Z,2.47
2017-11-28T01:12:48.117Z,4.28
2017-11-28T01:15:15.985Z,1.77
2017-11-28T01:17:43.850Z,2.00
2017-11-28T01:20:11.720Z,2.60
2017-11-28T01:22:39.589Z,1.70
2017-11-28T01:25:07.457Z,1.77
2017-11-28T01:27:35.320Z,1.90
2017-11-28T01:30:03.189Z,1.80
2017-11-28T01:32:31.056Z,5.30
2017-11-28T01:34:58.923Z,1.50
2017-11-28T01:37:26.688Z,1.80
2017-11-28T01:39:54.484Z,1.80
2017-11-28T01:42:23.141Z,1.52
2017-11-28T01:44:51.007Z,2.22
2017-11-28T01:47:18.874Z,2.05
2017-11-28T01:49:46.745Z,2.03
2017-11-28T01:52:14.510Z,1.33
2017-11-28T01:54:42.376Z,1.80
2017-11-28T01:57:10.147Z,1.83
2017-11-28T01:59:38.008Z,2.65
2017-11-28T02:02:05.875Z,7.62
2017-11-28T02:04:33.741Z,2.97
2017-11-28T02:07:01.608Z,1.60
2017-11-28T02:09:29.484Z,1.83
2017-11-28T02:11:57.343Z,2.95
2017-11-28T02:14:25.312Z,2.35
2017-11-28T02:16:53.181Z,2.10
2017-11-28T02:19:21.049Z,3.62
2017-11-28T02:21:48.939Z,2.75
2017-11-28T02:24:16.784Z,3.85
2017-11-28T02:26:44.576Z,2.12
2017-11-28T02:29:13.275Z,1.80
2017-11-28T02:31:41.820Z,4.93
2017-11-28T02:34:09.683Z,2.62
2017-11-28T02:36:37.478Z,2.28
2017-11-28T02:39:05.420Z,4.07
2017-11-28T02:41:33.210Z,4.37
2017-11-28T02:44:05.763Z,4.72
2017-11-28T02:46:33.555Z,2.33
2017-11-28T02:49:06.003Z,3.03
2017-11-28T02:51:33.873Z,3.00
2017-11-28T02:54:01.837Z,3.40
2017-11-28T02:56:29.809Z,4.12
2017-11-28T02:58:58.597Z,3.90
2017-11-28T03:01:44.998Z,3.20
2017-11-28T03:04:12.866Z,3.42
2017-11-28T03:06:40.734Z,1.83
2017-11-28T03:09:10.344Z,1.62
2017-11-28T03:11:38.209Z,1.70
2017-11-28T03:14:08.767Z,1.80
2017-11-28T03:16:37.426Z,2.87
2017-11-28T03:19:34.067Z,2.87
2017-11-28T03:22:20.572Z,1.60
2017-11-28T03:25:06.154Z,2.58
2017-11-28T03:27:34.023Z,2.05
2017-11-28T03:30:01.891Z,3.80
2017-11-28T03:32:29.756Z,2.17
2017-11-28T03:34:57.728Z,2.55
2017-11-28T03:37:25.594Z,1.60
2017-11-28T03:39:53.461Z,2.47
2017-11-28T03:42:21.328Z,3.53
2017-11-28T03:47:46.656Z,3.87
2017-11-28T03:50:16.983Z,1.62
2017-11-28T03:52:44.951Z,1.75
2017-11-28T03:55:12.818Z,1.77
2017-11-28T03:57:40.686Z,1.50
2017-11-28T04:00:08.553Z,2.10
2017-11-28T04:02:36.429Z,3.03
2017-11-28T04:05:04.288Z,1.70
2017-11-28T04:07:32.162Z,2.35
2017-11-28T04:10:00.125Z,1.87
2017-11-28T04:12:27.997Z,3.17
2017-11-28T04:14:55.859Z,1.80
2017-11-28T04:17:23.624Z,1.62
2017-11-28T04:19:51.492Z,2.17
2017-11-28T04:22:19.359Z,3.22
2017-11-28T04:24:47.228Z,2.95
2017-11-28T04:27:15.094Z,2.37
2017-11-28T04:29:42.962Z,5.12
2017-11-28T04:32:10.828Z,2.33
2017-11-28T04:34:38.696Z,1.62
2017-11-28T04:37:06.563Z,2.10
2017-11-28T04:39:34.430Z,3.22
2017-11-28T04:42:02.298Z,2.90
2017-11-28T04:44:51.923Z,1.80
2017-11-28T04:47:40.441Z,2.45
2017-11-28T04:50:11.814Z,1.70
2017-11-28T04:52:42.025Z,1.92
2017-11-28T04:55:12.426Z,2.85
2017-11-28T04:57:41.788Z,1.45
2017-11-28T05:00:09.698Z,1.77
2017-11-28T05:02:37.570Z,1.52
2017-11-28T05:05:05.534Z,1.67
2017-11-28T05:07:33.502Z,2.70
2017-11-28T05:10:01.299Z,1.30
2017-11-28T05:12:29.955Z,1.40
2017-11-28T05:14:57.821Z,2.12
2017-11-28T05:17:25.690Z,1.90
2017-11-28T05:19:53.556Z,1.45
2017-11-28T05:22:21.422Z,1.42
2017-11-28T05:24:49.292Z,1.37
2017-11-28T05:27:18.079Z,2.42
2017-11-28T05:29:45.946Z,1.60
2017-11-28T05:32:13.743Z,2.28
2017-11-28T05:34:42.415Z,3.17
2017-11-28T05:37:10.369Z,1.90
2017-11-28T05:39:38.336Z,1.60
2017-11-28T05:42:06.204Z,1.60
2017-11-28T05:44:34.073Z,1.60
2017-11-28T05:47:02.046Z,1.70
2017-11-28T05:49:30.012Z,1.20
2017-11-28T05:51:57.879Z,1.37
2017-11-28T05:54:25.746Z,1.62
2017-11-28T05:56:53.613Z,1.73
2017-11-28T05:59:21.479Z,4.10
2017-11-28T06:01:49.349Z,2.85
2017-11-28T06:04:17.215Z,3.10
2017-11-28T06:06:45.084Z,1.50
2017-11-28T06:09:12.953Z,1.48
2017-11-28T06:11:40.817Z,1.58
2017-11-28T06:14:08.785Z,3.10
2017-11-28T06:16:36.653Z,1.30
2017-11-28T06:19:04.521Z,1.62
2017-11-28T06:21:32.490Z,1.80
2017-11-28T06:24:00.461Z,5.68
2017-11-28T06:26:28.329Z,2.47
2017-11-28T06:28:56.194Z,1.50
2017-11-28T06:31:24.063Z,2.28
2017-11-28T06:33:51.931Z,2.55
2017-11-28T06:36:19.801Z,1.50
2017-11-28T06:38:47.695Z,2.35
2017-11-28T06:41:15.634Z,1.60
2017-11-28T06:43:43.501Z,1.52
2017-11-28T06:46:11.370Z,1.30
2017-11-28T06:48:39.236Z,1.50
2017-11-28T06:51:07.103Z,1.35
2017-11-28T06:53:34.971Z,1.15
2017-11-28T06:56:02.840Z,2.08
2017-11-28T06:58:30.706Z,2.00
2017-11-28T07:00:58.573Z,1.30
2017-11-28T07:03:26.375Z,2.55
2017-11-28T07:05:55.024Z,2.17
2017-11-28T07:08:22.894Z,1.30
2017-11-28T07:10:50.760Z,1.67
2017-11-28T07:13:18.626Z,1.65
2017-11-28T07:15:46.493Z,1.50
2017-11-28T07:18:14.362Z,2.03
2017-11-28T07:20:42.228Z,1.75
2017-11-28T07:23:10.108Z,1.50
2017-11-28T07:25:38.066Z,2.00
2017-11-28T07:28:05.932Z,2.05
2017-11-28T07:30:33.801Z,1.87
2017-11-28T07:33:01.771Z,1.90
2017-11-28T07:35:29.636Z,2.97
2017-11-28T07:37:57.511Z,1.10
2017-11-28T07:40:25.473Z,2.95
2017-11-28T07:42:53.343Z,1.70
2017-11-28T07:45:21.208Z,1.58
2017-11-28T07:47:49.080Z,1.40
2017-11-28T07:50:16.943Z,1.50
2017-11-28T07:52:44.815Z,1.33
2017-11-28T07:55:12.676Z,1.20
2017-11-28T07:57:40.545Z,2.03
2017-11-28T08:00:08.411Z,4.43
2017-11-28T08:02:36.282Z,17.48
2017-11-28T08:05:04.148Z,3.05
2017-11-28T08:07:32.017Z,6.50
2017-11-28T08:09:59.879Z,15.82
2017-11-28T08:12:27.749Z,3.10
2017-11-28T08:14:55.618Z,2.40
2017-11-28T08:17:23.484Z,12.23
2017-11-28T08:19:51.350Z,5.05
2017-11-28T08:22:19.319Z,3.72
2017-11-28T08:24:47.289Z,1.70
2017-11-28T08:27:15.260Z,1.30
2017-11-28T08:29:43.229Z,2.37
2017-11-28T08:32:11.207Z,1.50
2017-11-28T08:34:39.169Z,1.83
2017-11-28T08:37:07.038Z,2.00
2017-11-28T08:39:35.010Z,3.12
2017-11-28T08:42:02.975Z,2.42
2017-11-28T08:44:30.944Z,2.40
2017-11-28T08:46:58.772Z,3.70
2017-11-28T08:49:26.679Z,3.60
2017-11-28T08:51:54.648Z,2.42
2017-11-28T08:54:22.516Z,3.83
2017-11-28T08:56:50.384Z,3.08
2017-11-28T08:59:18.179Z,2.42
2017-11-28T09:01:46.836Z,1.50
2017-11-28T09:04:14.703Z,1.45
2017-11-28T09:06:42.569Z,2.67
2017-11-28T09:09:10.439Z,2.35
2017-11-28T09:11:38.303Z,1.52
2017-11-28T09:14:06.175Z,1.70
2017-11-28T09:16:34.038Z,1.60
2017-11-28T09:19:01.907Z,4.10
2017-11-28T09:21:29.775Z,1.25
2017-11-28T09:23:57.641Z,1.73
2017-11-28T09:26:25.644Z,1.30
2017-11-28T09:28:54.296Z,0.90
2017-11-28T09:31:22.163Z,1.15
2017-11-28T09:33:49.969Z,1.00
2017-11-28T09:36:18.614Z,1.30
2017-11-28T09:38:46.482Z,1.20
2017-11-28T09:41:14.349Z,2.50
2017-11-28T09:43:42.217Z,1.62
2017-11-28T09:46:10.084Z,1.33
2017-11-28T09:48:37.950Z,1.80
2017-11-28T09:51:05.922Z,3.35
2017-11-28T09:53:33.890Z,1.60
2017-11-28T09:56:01.758Z,1.60
2017-11-28T09:58:29.625Z,2.37
2017-11-28T10:00:57.492Z,1.75
2017-11-28T10:03:25.463Z,2.17
2017-11-28T10:05:53.431Z,1.62
2017-11-28T10:08:21.297Z,1.20
2017-11-28T10:10:49.167Z,1.05
2017-11-28T10:13:17.033Z,1.50
2017-11-28T10:15:44.900Z,1.17
2017-11-28T10:18:12.871Z,0.90
2017-11-28T10:20:40.738Z,0.95
2017-11-28T10:23:08.605Z,1.48
2017-11-28T10:25:36.473Z,1.62
2017-11-28T10:28:04.340Z,1.02
2017-11-28T10:30:32.312Z,1.05
2017-11-28T10:33:00.288Z,1.08
2017-11-28T10:35:28.147Z,2.50
2017-11-28T10:37:56.014Z,1.50
2017-11-28T10:40:23.984Z,6.85
2017-11-28T10:42:51.853Z,1.10
2017-11-28T10:45:19.821Z,1.80
2017-11-28T10:47:47.791Z,1.30
2017-11-28T10:50:15.661Z,2.87
2017-11-28T10:52:43.628Z,1.73
2017-11-28T10:55:11.495Z,2.12
2017-11-28T10:57:39.361Z,1.17
2017-11-28T11:00:07.229Z,1.60
2017-11-28T11:02:35.096Z,1.87
2017-11-28T11:05:02.966Z,1.20
2017-11-28T11:07:30.933Z,2.55
2017-11-28T11:09:58.731Z,5.60
2017-11-28T11:12:27.385Z,2.60
2017-11-28T11:14:55.354Z,1.40
2017-11-28T11:17:23.324Z,1.98
2017-11-28T11:19:51.293Z,1.85
2017-11-28T11:22:19.271Z,3.08
2017-11-28T11:24:47.139Z,4.55
2017-11-28T11:27:15.102Z,2.20
2017-11-28T11:29:42.968Z,3.20
2017-11-28T11:32:10.937Z,2.05
2017-11-28T11:34:38.907Z,1.58
2017-11-28T11:37:06.880Z,2.37
2017-11-28T11:39:34.847Z,3.97
2017-11-28T11:42:02.713Z,3.08
2017-11-28T11:44:30.689Z,1.80
2017-11-28T11:46:58.557Z,6.95
2017-11-28T11:49:26.520Z,4.22
2017-11-28T11:51:54.495Z,2.05
2017-11-28T11:54:22.284Z,6.55
2017-11-28T11:56:50.230Z,2.40
2017-11-28T11:59:18.204Z,1.92
2017-11-28T12:01:46.880Z,2.75
2017-11-28T12:04:14.748Z,2.72
2017-11-28T12:06:42.615Z,4.22
2017-11-28T12:09:10.592Z,3.05
2017-11-28T12:11:38.554Z,4.15
2017-11-28T12:14:06.526Z,2.50
2017-11-28T12:16:35.213Z,2.85
2017-11-28T12:19:03.180Z,1.70
2017-11-28T12:21:31.150Z,4.20
2017-11-28T12:23:59.017Z,4.70
2017-11-28T12:26:26.885Z,3.40
2017-11-28T12:28:54.855Z,3.90
2017-11-28T12:31:22.824Z,5.65
2017-11-28T12:33:50.691Z,3.90
2017-11-28T12:36:18.560Z,2.95
2017-11-28T12:38:46.529Z,3.83
2017-11-28T12:41:14.396Z,2.78
2017-11-28T12:43:42.263Z,3.80
2017-11-28T12:46:10.129Z,2.45
2017-11-28T12:48:37.998Z,2.85
2017-11-28T12:51:05.864Z,1.70
2017-11-28T12:53:33.731Z,1.90
2017-11-28T12:56:01.598Z,2.30
2017-11-28T12:58:29.466Z,1.70
2017-11-28T13:00:57.334Z,2.15
2017-11-28T13:03:25.201Z,3.62
2017-11-28T13:05:53.068Z,5.55
2017-11-28T13:08:20.935Z,3.15
2017-11-28T13:10:48.803Z,3.92
2017-11-28T13:13:16.670Z,3.45
2017-11-28T13:15:44.546Z,1.62
2017-11-28T13:18:12.406Z,3.55
2017-11-28T13:20:40.273Z,1.77
2017-11-28T13:23:08.139Z,4.25
2017-11-28T13:25:36.007Z,2.03
2017-11-28T13:28:03.873Z,3.05
2017-11-28T13:30:31.742Z,3.40
2017-11-28T13:32:59.608Z,2.87
2017-11-28T13:35:27.476Z,5.12
2017-11-28T13:37:55.346Z,2.95
2017-11-28T13:40:23.210Z,1.62
2017-11-28T13:42:51.077Z,2.15
2017-11-28T13:45:19.047Z,1.73
2017-11-28T13:47:47.029Z,1.62
2017-11-28T13:50:14.884Z,2.37
2017-11-28T13:52:42.751Z,3.78
2017-11-28T13:55:10.618Z,2.08
2017-11-28T13:57:38.486Z,5.97
2017-11-28T14:00:06.354Z,3.65
2017-11-28T14:02:34.220Z,1.73
2017-11-28T14:05:02.096Z,1.80
2017-11-28T14:07:30.058Z,5.32
2017-11-28T14:09:57.924Z,2.33
2017-11-28T14:12:25.792Z,2.95
2017-11-28T14:14:53.665Z,2.00
2017-11-28T14:17:21.628Z,3.42
2017-11-28T14:20:07.213Z,3.17
2017-11-28T14:22:40.546Z,3.17
2017-11-28T14:25:24.041Z,3.35
2017-11-28T14:28:08.702Z,4.00
2017-11-28T14:30:39.263Z,3.40
2017-11-28T14:33:09.556Z,3.25
2017-11-28T14:35:41.315Z,4.70
2017-11-28T14:38:09.285Z,4.80
2017-11-28T14:40:38.791Z,4.37
2017-11-28T14:43:07.272Z,3.92
2017-11-28T14:45:36.096Z,6.57
2017-11-28T14:48:04.749Z,2.85
2017-11-28T14:50:38.247Z,2.42
2017-11-28T14:53:06.116Z,5.00
2017-11-28T14:55:54.872Z,2.22
2017-11-28T14:58:24.516Z,3.70
2017-11-28T15:01:10.988Z,4.25
2017-11-28T15:03:46.532Z,2.72
2017-11-28T15:06:34.266Z,3.08
2017-11-28T15:09:07.664Z,9.82
2017-11-28T15:11:41.164Z,30.60
2017-11-28T15:14:29.814Z,13.40
2017-11-28T15:17:17.650Z,14.45
2017-11-28T15:19:49.103Z,7.32
2017-11-28T15:22:22.706Z,3.47
2017-11-28T15:24:50.674Z,2.40
2017-11-28T15:27:18.648Z,2.12
2017-11-28T15:29:51.119Z,3.08
2017-11-28T15:32:19.095Z,2.00
2017-11-28T15:34:46.954Z,3.30
2017-11-28T15:37:14.823Z,1.60
2017-11-28T15:39:42.691Z,4.00
2017-11-28T15:42:10.557Z,4.55
2017-11-28T15:44:38.424Z,3.40
2017-11-28T15:47:06.293Z,4.78
2017-11-28T15:49:34.160Z,8.50
2017-11-28T15:52:02.031Z,3.97
2017-11-28T15:54:29.902Z,6.15
2017-11-28T15:56:57.761Z,2.87
2017-11-28T15:59:25.628Z,5.15
2017-11-28T16:01:53.496Z,2.45
2017-11-28T16:04:21.363Z,2.95
2017-11-28T16:06:49.230Z,4.07
2017-11-28T16:09:17.098Z,3.75
2017-11-28T16:11:44.965Z,6.70
2017-11-28T16:14:12.791Z,2.97
2017-11-28T16:16:40.701Z,2.28
2017-11-28T16:19:08.567Z,5.40
2017-11-28T16:21:36.434Z,2.80
2017-11-28T16:24:04.301Z,4.70
2017-11-28T16:26:32.168Z,4.20
2017-11-28T16:29:00.036Z,4.30
2017-11-28T16:31:27.902Z,3.00
2017-11-28T16:33:55.771Z,5.72
2017-11-28T16:36:23.638Z,5.60
2017-11-28T16:38:51.505Z,3.03
2017-11-28T16:41:19.372Z,5.82
2017-11-28T16:43:47.239Z,5.65
2017-11-28T16:46:15.106Z,4.80
2017-11-28T16:48:42.973Z,6.47
2017-11-28T16:51:10.842Z,5.87
2017-11-28T16:53:38.709Z,5.45
2017-11-28T16:56:06.678Z,7.28
2017-11-28T16:58:34.552Z,5.85
2017-11-28T17:01:03.231Z,4.70
2017-11-28T17:03:31.203Z,6.30
2017-11-28T17:05:59.069Z,8.57
2017-11-28T17:08:26.937Z,5.00
2017-11-28T17:10:54.804Z,6.50
2017-11-28T17:13:22.671Z,5.00
2017-11-28T17:15:50.641Z,6.25
2017-11-28T17:18:18.611Z,8.00
2017-11-28T17:20:46.477Z,6.35
2017-11-28T17:23:14.447Z,8.27
2017-11-28T17:25:42.418Z,8.23
2017-11-28T17:28:10.387Z,6.03
2017-11-28T17:30:38.254Z,5.78
2017-11-28T17:33:06.223Z,8.48
2017-11-28T17:35:34.098Z,6.00
2017-11-28T17:38:02.061Z,7.50
2017-11-28T17:40:29.929Z,7.25
2017-11-28T17:42:57.798Z,9.90
2017-11-28T17:45:25.664Z,7.12
2017-11-28T17:47:53.530Z,7.20
2017-11-28T17:50:21.499Z,6.15
2017-11-28T17:52:49.517Z,6.80
2017-11-28T17:55:18.160Z,15.13
2017-11-28T17:57:46.126Z,9.57
2017-11-28T18:00:13.993Z,8.07
2017-11-28T18:02:41.860Z,8.95
2017-11-28T18:05:09.728Z,7.90
2017-11-28T18:07:37.596Z,6.32
2017-11-28T18:10:05.462Z,9.02
2017-11-28T18:12:33.331Z,9.90
2017-11-28T18:15:01.197Z,13.05
2017-11-28T18:17:29.064Z,9.73
2017-11-28T18:19:56.931Z,9.48
2017-11-28T18:22:24.799Z,10.77
2017-11-28T18:24:52.595Z,10.63
2017-11-28T18:27:21.250Z,11.05
2017-11-28T18:29:49.121Z,10.45
2017-11-28T18:32:17.087Z,10.38
2017-11-28T18:34:44.954Z,10.75
2017-11-28T18:37:12.924Z,8.77
2017-11-28T18:39:40.893Z,9.15
2017-11-28T18:42:08.864Z,9.38
2017-11-28T18:44:36.731Z,13.27
2017-11-28T18:47:04.597Z,12.43
2017-11-28T18:49:32.465Z,10.30
2017-11-28T18:52:00.332Z,9.35
2017-11-28T18:54:28.199Z,9.52
2017-11-28T18:56:56.068Z,15.98
2017-11-28T18:59:23.935Z,10.55
2017-11-28T19:01:51.802Z,10.48
2017-11-28T19:04:19.670Z,10.93
2017-11-28T19:06:47.537Z,10.48
2017-11-28T19:09:15.408Z,11.07
2017-11-28T19:11:43.274Z,8.93
2017-11-28T19:14:11.268Z,13.20
2017-11-28T19:16:39.921Z,9.77
2017-11-28T19:19:07.794Z,11.48
2017-11-28T19:21:35.662Z,11.98
2017-11-28T19:24:03.529Z,10.35
2017-11-28T19:26:31.396Z,10.60
2017-11-28T19:28:59.263Z,10.27
2017-11-28T19:31:27.133Z,11.35
2017-11-28T19:33:55.002Z,8.60
2017-11-28T19:36:22.868Z,8.48
2017-11-28T19:38:50.736Z,10.65
2017-11-28T19:41:18.600Z,9.18
2017-11-28T19:43:46.474Z,9.63
2017-11-28T19:46:14.439Z,6.85
2017-11-28T19:48:42.306Z,8.63
2017-11-28T19:51:10.275Z,9.65
2017-11-28T19:53:38.275Z,8.63
2017-11-28T19:56:07.037Z,7.78
2017-11-28T19:58:35.004Z,9.40
2017-11-28T20:01:02.980Z,11.25
2017-11-28T20:03:30.840Z,7.72
2017-11-28T20:05:58.810Z,10.82
2017-11-28T20:08:26.779Z,10.15
2017-11-28T20:10:54.748Z,11.63
2017-11-28T20:13:22.719Z,11.75
2017-11-28T20:15:50.586Z,11.00
2017-11-28T20:18:18.455Z,13.07
2017-11-28T20:20:46.422Z,9.55
2017-11-28T20:23:14.291Z,8.15
2017-11-28T20:25:42.159Z,9.95
2017-11-28T20:28:10.025Z,9.95
2017-11-28T20:30:37.893Z,11.05
2017-11-28T20:33:05.760Z,14.05
2017-11-28T20:35:33.627Z,10.27
2017-11-28T20:38:01.498Z,14.18
2017-11-28T20:40:29.466Z,13.60
2017-11-28T20:42:57.435Z,11.85
2017-11-28T20:45:25.302Z,12.40
2017-11-28T20:47:53.168Z,13.73
2017-11-28T20:50:21.036Z,13.20
2017-11-28T20:52:48.903Z,10.43
2017-11-28T20:55:16.776Z,12.45
2017-11-28T20:57:44.637Z,11.12
2017-11-28T21:00:12.505Z,10.90
2017-11-28T21:02:40.372Z,10.65
2017-11-28T21:05:08.240Z,13.70
2017-11-28T21:07:36.109Z,11.63
2017-11-28T21:10:03.974Z,13.38
2017-11-28T21:12:31.851Z,13.05
2017-11-28T21:14:59.708Z,17.00
2017-11-28T21:17:27.577Z,13.35
2017-11-28T21:19:55.546Z,18.52
2017-11-28T21:22:23.414Z,19.92
2017-11-28T21:24:51.386Z,19.05
2017-11-28T21:27:19.352Z,18.40
2017-11-28T21:29:47.220Z,17.30
2017-11-28T21:32:15.088Z,17.92
2017-11-28T21:34:43.058Z,14.40
2017-11-28T21:37:10.925Z,13.25
2017-11-28T21:39:38.792Z,14.70
2017-11-28T21:42:06.662Z,13.90
2017-11-28T21:44:34.526Z,16.35
2017-11-28T21:47:02.393Z,10.45
2017-11-28T21:49:30.261Z,11.65
2017-11-28T21:51:58.129Z,11.50
2017-11-28T21:54:25.995Z,17.33
2017-11-28T21:56:53.863Z,14.55
2017-11-28T21:59:21.664Z,10.65
2017-11-28T22:01:50.316Z,11.60
2017-11-28T22:04:18.184Z,13.02
2017-11-28T22:06:46.047Z,13.00
2017-11-28T22:09:13.917Z,12.10
2017-11-28T22:11:41.783Z,12.57
2017-11-28T22:14:09.651Z,18.17
2017-11-28T22:16:37.518Z,13.43
2017-11-28T22:19:05.385Z,18.27
2017-11-28T22:21:33.254Z,16.00
2017-11-28T22:24:01.120Z,16.62
2017-11-28T22:26:28.988Z,18.60
2017-11-28T22:28:56.855Z,17.10
2017-11-28T22:31:24.726Z,24.63
2017-11-28T22:33:52.590Z,19.25
2017-11-28T22:36:20.457Z,20.95
2017-11-28T22:38:48.323Z,22.42
2017-11-28T22:41:16.191Z,16.58
2017-11-28T22:43:44.059Z,16.25
2017-11-28T22:46:11.926Z,16.80
2017-11-28T22:48:39.793Z,15.68
2017-11-28T22:51:07.662Z,22.20
2017-11-28T22:53:35.527Z,14.60
2017-11-28T22:56:03.395Z,13.88
2017-11-28T22:58:31.366Z,14.50
2017-11-28T23:00:59.232Z,11.93
2017-11-28T23:03:27.107Z,12.25
2017-11-28T23:05:54.978Z,14.65
2017-11-28T23:08:22.835Z,11.82
2017-11-28T23:10:50.706Z,19.60
2017-11-28T23:13:18.568Z,15.13
2017-11-28T23:15:46.437Z,14.80
2017-11-28T23:18:14.304Z,13.25
2017-11-28T23:20:42.170Z,18.95
2017-11-28T23:23:10.039Z,19.48
2017-11-28T23:25:37.906Z,17.85
2017-11-28T23:28:05.773Z,19.23
2017-11-28T23:30:33.640Z,16.33
2017-11-28T23:33:01.507Z,20.50
2017-11-28T23:35:29.374Z,19.48
2017-11-28T23:37:57.241Z,21.75
2017-11-28T23:40:25.212Z,19.08
2017-11-28T23:42:53.079Z,18.87
2017-11-28T23:45:21.049Z,16.35
2017-11-28T23:47:49.018Z,18.42
2017-11-28T23:50:16.896Z,13.48
2017-11-28T23:52:44.855Z,13.20
2017-11-28T23:55:12.751Z,13.90
2017-11-28T23:57:40.693Z,16.25
